sensor_id;sensor_type;location;lat;lon;timestamp;pressure;altitude;pressure_sealevel;temperature
76583;BMP280;65462;52.148;7.940;2023-07-13T00:01:28;100609.53;;;18.19
76583;BMP280;65462;52.148;7.940;2023-07-13T00:03:55;100609.94;;;18.18
76583;BMP280;65462;52.148;7.940;2023-07-13T00:06:20;100611.44;;;18.15
76583;BMP280;65462;52.148;7.940;2023-07-13T00:08:46;100617.53;;;18.12
76583;BMP280;65462;52.148;7.940;2023-07-13T00:11:13;100621.38;;;18.11
76583;BMP280;65462;52.148;7.940;2023-07-13T00:13:38;100618.25;;;18.09
76583;BMP280;65462;52.148;7.940;2023-07-13T00:16:04;100621.34;;;18.08
76583;BMP280;65462;52.148;7.940;2023-07-13T00:18:29;100615.56;;;18.06
76583;BMP280;65462;52.148;7.940;2023-07-13T00:20:56;100620.91;;;18.06
76583;BMP280;65462;52.148;7.940;2023-07-13T00:23:30;100632.78;;;18.05
76583;BMP280;65462;52.148;7.940;2023-07-13T00:25:56;100619.38;;;18.01
76583;BMP280;65462;52.148;7.940;2023-07-13T00:28:22;100626.22;;;17.99
76583;BMP280;65462;52.148;7.940;2023-07-13T00:30:48;100626.59;;;17.94
76583;BMP280;65462;52.148;7.940;2023-07-13T00:33:13;100623.50;;;17.92
76583;BMP280;65462;52.148;7.940;2023-07-13T00:35:38;100631.53;;;17.92
76583;BMP280;65462;52.148;7.940;2023-07-13T00:38:04;100625.75;;;17.90
76583;BMP280;65462;52.148;7.940;2023-07-13T00:40:29;100627.28;;;17.87
76583;BMP280;65462;52.148;7.940;2023-07-13T00:42:57;100628.03;;;17.84
76583;BMP280;65462;52.148;7.940;2023-07-13T00:47:48;100626.47;;;17.80
76583;BMP280;65462;52.148;7.940;2023-07-13T00:50:15;100627.19;;;17.77
76583;BMP280;65462;52.148;7.940;2023-07-13T00:52:44;100627.19;;;17.73
76583;BMP280;65462;52.148;7.940;2023-07-13T00:55:11;100628.31;;;17.72
76583;BMP280;65462;52.148;7.940;2023-07-13T00:57:37;100634.75;;;17.68
76583;BMP280;65462;52.148;7.940;2023-07-13T01:00:05;100628.63;;;17.67
76583;BMP280;65462;52.148;7.940;2023-07-13T01:02:37;100632.81;;;17.65
76583;BMP280;65462;52.148;7.940;2023-07-13T01:05:14;100640.00;;;17.61
76583;BMP280;65462;52.148;7.940;2023-07-13T01:07:40;100638.09;;;17.58
76583;BMP280;65462;52.148;7.940;2023-07-13T01:10:07;100627.75;;;17.53
76583;BMP280;65462;52.148;7.940;2023-07-13T01:12:32;100631.53;;;17.52
76583;BMP280;65462;52.148;7.940;2023-07-13T01:14:58;100633.06;;;17.49
76583;BMP280;65462;52.148;7.940;2023-07-13T01:17:25;100633.81;;;17.46
76583;BMP280;65462;52.148;7.940;2023-07-13T01:19:51;100635.31;;;17.43
76583;BMP280;65462;52.148;7.940;2023-07-13T01:22:18;100631.47;;;17.41
76583;BMP280;65462;52.148;7.940;2023-07-13T01:24:45;100638.25;;;17.35
76583;BMP280;65462;52.148;7.940;2023-07-13T01:27:14;100631.34;;;17.30
76583;BMP280;65462;52.148;7.940;2023-07-13T01:29:41;100626.34;;;17.29
76583;BMP280;65462;52.148;7.940;2023-07-13T01:32:12;100618.34;;;17.29
76583;BMP280;65462;52.148;7.940;2023-07-13T01:34:38;100619.81;;;17.23
76583;BMP280;65462;52.148;7.940;2023-07-13T01:37:07;100612.13;;;17.18
76583;BMP280;65462;52.148;7.940;2023-07-13T01:39:33;100615.16;;;17.16
76583;BMP280;65462;52.148;7.940;2023-07-13T01:41:58;100610.16;;;17.11
76583;BMP280;65462;52.148;7.940;2023-07-13T01:44:23;100609.00;;;17.09
76583;BMP280;65462;52.148;7.940;2023-07-13T01:46:49;100610.47;;;17.06
76583;BMP280;65462;52.148;7.940;2023-07-13T01:49:14;100600.50;;;17.03
76583;BMP280;65462;52.148;7.940;2023-07-13T01:51:39;100612.34;;;17.02
76583;BMP280;65462;52.148;7.940;2023-07-13T01:54:04;100609.25;;;17.00
76583;BMP280;65462;52.148;7.940;2023-07-13T01:56:30;100608.44;;;16.96
76583;BMP280;65462;52.148;7.940;2023-07-13T01:58:55;100606.50;;;16.93
76583;BMP280;65462;52.148;7.940;2023-07-13T02:01:20;100614.91;;;16.92
76583;BMP280;65462;52.148;7.940;2023-07-13T02:03:45;100615.59;;;16.89
76583;BMP280;65462;52.148;7.940;2023-07-13T02:06:12;100626.25;;;16.85
76583;BMP280;65462;52.148;7.940;2023-07-13T02:08:37;100613.91;;;16.77
76583;BMP280;65462;52.148;7.940;2023-07-13T02:11:03;100618.91;;;16.79
76583;BMP280;65462;52.148;7.940;2023-07-13T02:13:29;100621.53;;;16.75
76583;BMP280;65462;52.148;7.940;2023-07-13T02:15:54;100630.31;;;16.76
76583;BMP280;65462;52.148;7.940;2023-07-13T02:18:19;100631.41;;;16.71
76583;BMP280;65462;52.148;7.940;2023-07-13T02:20:45;100628.31;;;16.69
76583;BMP280;65462;52.148;7.940;2023-07-13T02:23:11;100631.72;;;16.66
76583;BMP280;65462;52.148;7.940;2023-07-13T02:25:36;100633.22;;;16.64
76583;BMP280;65462;52.148;7.940;2023-07-13T02:28:01;100629.78;;;16.63
76583;BMP280;65462;52.148;7.940;2023-07-13T02:30:27;100632.03;;;16.61
76583;BMP280;65462;52.148;7.940;2023-07-13T02:32:55;100633.50;;;16.58
76583;BMP280;65462;52.148;7.940;2023-07-13T02:35:20;100638.81;;;16.55
76583;BMP280;65462;52.148;7.940;2023-07-13T02:37:45;100632.66;;;16.51
76583;BMP280;65462;52.148;7.940;2023-07-13T02:40:11;100634.19;;;16.52
76583;BMP280;65462;52.148;7.940;2023-07-13T02:42:36;100634.56;;;16.50
76583;BMP280;65462;52.148;7.940;2023-07-13T02:45:01;100627.28;;;16.47
76583;BMP280;65462;52.148;7.940;2023-07-13T02:47:26;100629.53;;;16.45
76583;BMP280;65462;52.148;7.940;2023-07-13T02:49:52;100624.56;;;16.44
76583;BMP280;65462;52.148;7.940;2023-07-13T02:52:17;100633.28;;;16.41
76583;BMP280;65462;52.148;7.940;2023-07-13T02:54:42;100630.59;;;16.41
76583;BMP280;65462;52.148;7.940;2023-07-13T02:57:08;100619.09;;;16.37
76583;BMP280;65462;52.148;7.940;2023-07-13T02:59:33;100627.47;;;16.35
76583;BMP280;65462;52.148;7.940;2023-07-13T03:02:01;100625.16;;;16.34
76583;BMP280;65462;52.148;7.940;2023-07-13T03:04:26;100627.06;;;16.33
76583;BMP280;65462;52.148;7.940;2023-07-13T03:06:51;100631.97;;;16.31
76583;BMP280;65462;52.148;7.940;2023-07-13T03:09:16;100635.03;;;16.30
76583;BMP280;65462;52.148;7.940;2023-07-13T03:11:42;100637.69;;;16.30
76583;BMP280;65462;52.148;7.940;2023-07-13T03:14:08;100640.34;;;16.30
76583;BMP280;65462;52.148;7.940;2023-07-13T03:16:33;100645.69;;;16.30
76583;BMP280;65462;52.148;7.940;2023-07-13T03:18:59;100640.34;;;16.30
76583;BMP280;65462;52.148;7.940;2023-07-13T03:21:24;100636.91;;;16.29
76583;BMP280;65462;52.148;7.940;2023-07-13T03:23:49;100641.09;;;16.30
76583;BMP280;65462;52.148;7.940;2023-07-13T03:26:19;100638.78;;;16.29
76583;BMP280;65462;52.148;7.940;2023-07-13T03:28:45;100639.56;;;16.29
76583;BMP280;65462;52.148;7.940;2023-07-13T03:31:20;100642.59;;;16.28
76583;BMP280;65462;52.148;7.940;2023-07-13T03:33:46;100642.94;;;16.26
76583;BMP280;65462;52.148;7.940;2023-07-13T03:36:18;100646.00;;;16.25
76583;BMP280;65462;52.148;7.940;2023-07-13T03:38:48;100645.56;;;16.23
76583;BMP280;65462;52.148;7.940;2023-07-13T03:41:14;100645.16;;;16.21
76583;BMP280;65462;52.148;7.940;2023-07-13T03:43:40;100642.84;;;16.19
76583;BMP280;65462;52.148;7.940;2023-07-13T03:46:05;100649.31;;;16.18
76583;BMP280;65462;52.148;7.940;2023-07-13T03:48:30;100661.09;;;16.17
76583;BMP280;65462;52.148;7.940;2023-07-13T03:50:55;100659.91;;;16.15
76583;BMP280;65462;52.148;7.940;2023-07-13T03:53:21;100657.25;;;16.15
76583;BMP280;65462;52.148;7.940;2023-07-13T03:55:46;100660.28;;;16.13
76583;BMP280;65462;52.148;7.940;2023-07-13T03:58:31;100655.63;;;16.10
76583;BMP280;65462;52.148;7.940;2023-07-13T04:00:57;100664.78;;;16.09
76583;BMP280;65462;52.148;7.940;2023-07-13T04:03:23;100662.47;;;16.08
76583;BMP280;65462;52.148;7.940;2023-07-13T04:05:49;100670.81;;;16.06
76583;BMP280;65462;52.148;7.940;2023-07-13T04:08:14;100665.84;;;16.05
76583;BMP280;65462;52.148;7.940;2023-07-13T04:10:39;100663.16;;;16.05
76583;BMP280;65462;52.148;7.940;2023-07-13T04:13:05;100665.00;;;16.01
76583;BMP280;65462;52.148;7.940;2023-07-13T04:15:31;100674.56;;;16.02
76583;BMP280;65462;52.148;7.940;2023-07-13T04:17:57;100686.34;;;16.01
76583;BMP280;65462;52.148;7.940;2023-07-13T04:20:23;100680.22;;;16.00
76583;BMP280;65462;52.148;7.940;2023-07-13T04:22:49;100675.63;;;15.97
76583;BMP280;65462;52.148;7.940;2023-07-13T04:25:14;100677.56;;;16.00
76583;BMP280;65462;52.148;7.940;2023-07-13T04:27:39;100684.44;;;16.01
76583;BMP280;65462;52.148;7.940;2023-07-13T04:30:06;100676.03;;;15.99
76583;BMP280;65462;52.148;7.940;2023-07-13T04:32:31;100685.22;;;16.02
76583;BMP280;65462;52.148;7.940;2023-07-13T04:34:57;100683.34;;;16.02
76583;BMP280;65462;52.148;7.940;2023-07-13T04:37:25;100682.19;;;16.03
76583;BMP280;65462;52.148;7.940;2023-07-13T04:39:50;100680.31;;;16.04
76583;BMP280;65462;52.148;7.940;2023-07-13T04:42:15;100681.41;;;16.03
76583;BMP280;65462;52.148;7.940;2023-07-13T04:44:41;100683.41;;;16.06
76583;BMP280;65462;52.148;7.940;2023-07-13T04:47:06;100677.69;;;16.07
76583;BMP280;65462;52.148;7.940;2023-07-13T04:49:32;100682.69;;;16.09
76583;BMP280;65462;52.148;7.940;2023-07-13T04:51:57;100690.75;;;16.12
76583;BMP280;65462;52.148;7.940;2023-07-13T04:54:22;100686.56;;;16.15
76583;BMP280;65462;52.148;7.940;2023-07-13T04:56:47;100687.00;;;16.17
76583;BMP280;65462;52.148;7.940;2023-07-13T04:59:13;100686.28;;;16.20
76583;BMP280;65462;52.148;7.940;2023-07-13T05:01:38;100688.97;;;16.20
76583;BMP280;65462;52.148;7.940;2023-07-13T05:04:04;100687.41;;;16.19
76583;BMP280;65462;52.148;7.940;2023-07-13T05:06:29;100694.00;;;16.25
76583;BMP280;65462;52.148;7.940;2023-07-13T05:08:55;100695.94;;;16.28
76583;BMP280;65462;52.148;7.940;2023-07-13T05:11:21;100696.72;;;16.28
76583;BMP280;65462;52.148;7.940;2023-07-13T05:13:46;100699.41;;;16.28
76583;BMP280;65462;52.148;7.940;2023-07-13T05:16:12;100694.09;;;16.32
76583;BMP280;65462;52.148;7.940;2023-07-13T05:18:37;100693.75;;;16.33
76583;BMP280;65462;52.148;7.940;2023-07-13T05:21:07;100703.38;;;16.41
76583;BMP280;65462;52.148;7.940;2023-07-13T05:23:34;100702.63;;;16.41
76583;BMP280;65462;52.148;7.940;2023-07-13T05:25:59;100696.94;;;16.42
76583;BMP280;65462;52.148;7.940;2023-07-13T05:28:26;100698.13;;;16.45
76583;BMP280;65462;52.148;7.940;2023-07-13T05:30:52;100708.06;;;16.48
76583;BMP280;65462;52.148;7.940;2023-07-13T05:33:17;100709.31;;;16.54
76583;BMP280;65462;52.148;7.940;2023-07-13T05:35:42;100709.34;;;16.57
76583;BMP280;65462;52.148;7.940;2023-07-13T05:38:08;100712.09;;;16.61
76583;BMP280;65462;52.148;7.940;2023-07-13T05:40:33;100716.69;;;16.64
76583;BMP280;65462;52.148;7.940;2023-07-13T05:42:58;100712.91;;;16.65
76583;BMP280;65462;52.148;7.940;2023-07-13T05:45:24;100711.06;;;16.69
76583;BMP280;65462;52.148;7.940;2023-07-13T05:47:49;100716.81;;;16.71
76583;BMP280;65462;52.148;7.940;2023-07-13T05:50:15;100714.56;;;16.73
76583;BMP280;65462;52.148;7.940;2023-07-13T05:52:40;100724.53;;;16.76
76583;BMP280;65462;52.148;7.940;2023-07-13T05:55:06;100727.59;;;16.78
76583;BMP280;65462;52.148;7.940;2023-07-13T05:57:31;100723.00;;;16.79
76583;BMP280;65462;52.148;7.940;2023-07-13T05:59:57;100731.06;;;16.82
76583;BMP280;65462;52.148;7.940;2023-07-13T06:02:22;100725.03;;;16.85
76583;BMP280;65462;52.148;7.940;2023-07-13T06:04:48;100731.53;;;16.88
76583;BMP280;65462;52.148;7.940;2023-07-13T06:07:13;100731.53;;;16.88
76583;BMP280;65462;52.148;7.940;2023-07-13T06:09:38;100742.22;;;16.88
76583;BMP280;65462;52.148;7.940;2023-07-13T06:12:04;100734.59;;;16.90
76583;BMP280;65462;52.148;7.940;2023-07-13T06:14:30;100746.84;;;16.91
76583;BMP280;65462;52.148;7.940;2023-07-13T06:16:55;100751.41;;;16.90
76583;BMP280;65462;52.148;7.940;2023-07-13T06:19:20;100747.66;;;16.95
76583;BMP280;65462;52.148;7.940;2023-07-13T06:21:45;100737.44;;;17.00
76583;BMP280;65462;52.148;7.940;2023-07-13T06:24:11;100740.19;;;17.07
76583;BMP280;65462;52.148;7.940;2023-07-13T06:26:36;100749.09;;;17.15
76583;BMP280;65462;52.148;7.940;2023-07-13T06:29:01;100741.91;;;17.22
76583;BMP280;65462;52.148;7.940;2023-07-13T06:31:27;100747.31;;;17.26
76583;BMP280;65462;52.148;7.940;2023-07-13T06:33:52;100745.91;;;17.35
76583;BMP280;65462;52.148;7.940;2023-07-13T06:36:17;100734.47;;;17.38
76583;BMP280;65462;52.148;7.940;2023-07-13T06:38:43;100750.31;;;17.51
76583;BMP280;65462;52.148;7.940;2023-07-13T06:41:09;100748.50;;;17.62
76583;BMP280;65462;52.148;7.940;2023-07-13T06:43:34;100750.91;;;17.74
76583;BMP280;65462;52.148;7.940;2023-07-13T06:45:59;100754.47;;;17.85
76583;BMP280;65462;52.148;7.940;2023-07-13T06:48:26;100766.03;;;17.96
76583;BMP280;65462;52.148;7.940;2023-07-13T06:50:52;100755.44;;;18.06
76583;BMP280;65462;52.148;7.940;2023-07-13T06:53:19;100757.44;;;18.16
76583;BMP280;65462;52.148;7.940;2023-07-13T06:55:44;100757.19;;;18.32
76583;BMP280;65462;52.148;7.940;2023-07-13T06:58:10;100765.72;;;18.48
76583;BMP280;65462;52.148;7.940;2023-07-13T07:00:35;100766.19;;;18.61
76583;BMP280;65462;52.148;7.940;2023-07-13T07:03:01;100772.00;;;18.73
76583;BMP280;65462;52.148;7.940;2023-07-13T07:05:26;100767.13;;;18.82
76583;BMP280;65462;52.148;7.940;2023-07-13T07:07:54;100773.28;;;18.93
76583;BMP280;65462;52.148;7.940;2023-07-13T07:10:20;100770.28;;;19.05
76583;BMP280;65462;52.148;7.940;2023-07-13T07:12:45;100772.25;;;19.19
76583;BMP280;65462;52.148;7.940;2023-07-13T07:15:11;100779.25;;;19.30
76583;BMP280;65462;52.148;7.940;2023-07-13T07:17:37;100775.06;;;19.47
76583;BMP280;65462;52.148;7.940;2023-07-13T07:20:03;100770.50;;;19.62
76583;BMP280;65462;52.148;7.940;2023-07-13T07:22:29;100779.00;;;19.74
76583;BMP280;65462;52.148;7.940;2023-07-13T07:24:55;100779.38;;;19.87
76583;BMP280;65462;52.148;7.940;2023-07-13T07:27:21;100773.25;;;19.93
76583;BMP280;65462;52.148;7.940;2023-07-13T07:29:46;100776.72;;;19.97
76583;BMP280;65462;52.148;7.940;2023-07-13T07:32:11;100782.06;;;20.01
76583;BMP280;65462;52.148;7.940;2023-07-13T07:34:43;100780.91;;;20.02
76583;BMP280;65462;52.148;7.940;2023-07-13T07:37:13;100777.47;;;20.05
76583;BMP280;65462;52.148;7.940;2023-07-13T07:39:38;100777.09;;;20.10
76583;BMP280;65462;52.148;7.940;2023-07-13T07:42:04;100775.19;;;20.14
76583;BMP280;65462;52.148;7.940;2023-07-13T07:44:31;100775.97;;;20.25
76583;BMP280;65462;52.148;7.940;2023-07-13T07:46:56;100770.59;;;20.32
76583;BMP280;65462;52.148;7.940;2023-07-13T07:49:22;100782.88;;;20.40
76583;BMP280;65462;52.148;7.940;2023-07-13T07:51:47;100772.84;;;20.48
76583;BMP280;65462;52.148;7.940;2023-07-13T07:54:12;100790.13;;;20.54
76583;BMP280;65462;52.148;7.940;2023-07-13T07:56:38;100786.28;;;20.62
76583;BMP280;65462;52.148;7.940;2023-07-13T07:59:03;100784.72;;;20.68
76583;BMP280;65462;52.148;7.940;2023-07-13T08:01:29;100782.03;;;20.75
76583;BMP280;65462;52.148;7.940;2023-07-13T08:03:54;100782.75;;;20.89
76583;BMP280;65462;52.148;7.940;2023-07-13T08:06:19;100786.94;;;21.01
76583;BMP280;65462;52.148;7.940;2023-07-13T08:08:45;100780.75;;;21.14
76583;BMP280;65462;52.148;7.940;2023-07-13T08:11:11;100780.34;;;21.19
76583;BMP280;65462;52.148;7.940;2023-07-13T08:13:36;100782.59;;;21.28
76583;BMP280;65462;52.148;7.940;2023-07-13T08:16:04;100784.09;;;21.36
76583;BMP280;65462;52.148;7.940;2023-07-13T08:18:29;100781.34;;;21.46
76583;BMP280;65462;52.148;7.940;2023-07-13T08:20:55;100777.47;;;21.58
76583;BMP280;65462;52.148;7.940;2023-07-13T08:23:22;100775.84;;;21.68
76583;BMP280;65462;52.148;7.940;2023-07-13T08:25:52;100776.16;;;21.77
76583;BMP280;65462;52.148;7.940;2023-07-13T08:28:19;100783.81;;;21.82
76583;BMP280;65462;52.148;7.940;2023-07-13T08:30:44;100776.78;;;21.95
76583;BMP280;65462;52.148;7.940;2023-07-13T08:33:14;100773.28;;;22.01
76583;BMP280;65462;52.148;7.940;2023-07-13T08:35:39;100773.69;;;22.00
76583;BMP280;65462;52.148;7.940;2023-07-13T08:38:05;100772.09;;;22.06
76583;BMP280;65462;52.148;7.940;2023-07-13T08:40:30;100784.38;;;22.10
76583;BMP280;65462;52.148;7.940;2023-07-13T08:42:58;100772.69;;;22.24
76583;BMP280;65462;52.148;7.940;2023-07-13T08:45:25;100778.78;;;22.31
76583;BMP280;65462;52.148;7.940;2023-07-13T08:47:57;100774.47;;;22.37
76583;BMP280;65462;52.148;7.940;2023-07-13T08:50:29;100770.25;;;22.36
76583;BMP280;65462;52.148;7.940;2023-07-13T08:52:56;100779.47;;;22.42
76583;BMP280;65462;52.148;7.940;2023-07-13T08:55:25;100765.56;;;22.47
76583;BMP280;65462;52.148;7.940;2023-07-13T08:58:00;100772.00;;;22.53
76583;BMP280;65462;52.148;7.940;2023-07-13T09:00:39;100780.81;;;22.61
76583;BMP280;65462;52.148;7.940;2023-07-13T09:03:18;100775.41;;;22.61
76583;BMP280;65462;52.148;7.940;2023-07-13T09:05:49;100781.63;;;22.58
76583;BMP280;65462;52.148;7.940;2023-07-13T09:11:23;100776.16;;;22.65
76583;BMP280;65462;52.148;7.940;2023-07-13T09:13:57;100784.13;;;22.72
76583;BMP280;65462;52.148;7.940;2023-07-13T09:16:25;100784.06;;;22.79
76583;BMP280;65462;52.148;7.940;2023-07-13T09:18:54;100778.25;;;22.84
76583;BMP280;65462;52.148;7.940;2023-07-13T09:21:25;100774.38;;;22.85
76583;BMP280;65462;52.148;7.940;2023-07-13T09:24:41;100778.13;;;22.91
76583;BMP280;65462;52.148;7.940;2023-07-13T09:26:41;100775.75;;;22.97
76583;BMP280;65462;52.148;7.940;2023-07-13T09:29:14;100775.25;;;23.05
76583;BMP280;65462;52.148;7.940;2023-07-13T09:31:47;100774.66;;;23.21
76583;BMP280;65462;52.148;7.940;2023-07-13T09:34:14;100777.59;;;23.30
76583;BMP280;65462;52.148;7.940;2023-07-13T09:36:39;100778.59;;;23.43
76583;BMP280;65462;52.148;7.940;2023-07-13T09:44:29;100783.34;;;23.58
76583;BMP280;65462;52.148;7.940;2023-07-13T09:46:56;100772.22;;;23.56
76583;BMP280;65462;52.148;7.940;2023-07-13T09:49:27;100773.38;;;23.55
76583;BMP280;65462;52.148;7.940;2023-07-13T09:52:10;100781.75;;;23.64
76583;BMP280;65462;52.148;7.940;2023-07-13T09:54:36;100801.81;;;23.63
76583;BMP280;65462;52.148;7.940;2023-07-13T09:57:08;100791.44;;;23.58
76583;BMP280;65462;52.148;7.940;2023-07-13T09:59:41;100787.69;;;23.52
76583;BMP280;65462;52.148;7.940;2023-07-13T10:02:28;100790.88;;;23.47
76583;BMP280;65462;52.148;7.940;2023-07-13T10:05:06;100793.97;;;23.46
76583;BMP280;65462;52.148;7.940;2023-07-13T10:07:38;100792.88;;;23.43
76583;BMP280;65462;52.148;7.940;2023-07-13T10:10:14;100793.28;;;23.42
76583;BMP280;65462;52.148;7.940;2023-07-13T10:12:40;100794.44;;;23.41
76583;BMP280;65462;52.148;7.940;2023-07-13T10:15:19;100803.75;;;23.36
76583;BMP280;65462;52.148;7.940;2023-07-13T10:17:46;100804.53;;;23.33
76583;BMP280;65462;52.148;7.940;2023-07-13T10:20:11;100800.44;;;23.25
76583;BMP280;65462;52.148;7.940;2023-07-13T10:23:00;100797.47;;;23.16
76583;BMP280;65462;52.148;7.940;2023-07-13T10:25:30;100801.38;;;23.12
76583;BMP280;65462;52.148;7.940;2023-07-13T10:28:04;100799.09;;;23.10
76583;BMP280;65462;52.148;7.940;2023-07-13T10:30:34;100802.56;;;23.11
76583;BMP280;65462;52.148;7.940;2023-07-13T10:33:02;100820.97;;;23.16
76583;BMP280;65462;52.148;7.940;2023-07-13T10:35:29;100819.16;;;23.09
76583;BMP280;65462;52.148;7.940;2023-07-13T10:38:01;100810.31;;;23.05
76583;BMP280;65462;52.148;7.940;2023-07-13T10:40:40;100812.28;;;23.01
76583;BMP280;65462;52.148;7.940;2023-07-13T10:43:16;100811.44;;;23.08
76583;BMP280;65462;52.148;7.940;2023-07-13T10:45:45;100813.75;;;23.09
76583;BMP280;65462;52.148;7.940;2023-07-13T10:48:12;100822.56;;;23.13
76583;BMP280;65462;52.148;7.940;2023-07-13T10:50:40;100826.78;;;23.14
76583;BMP280;65462;52.148;7.940;2023-07-13T10:53:27;100816.78;;;23.11
76583;BMP280;65462;52.148;7.940;2023-07-13T11:01:12;100827.75;;;23.27
76583;BMP280;65462;52.148;7.940;2023-07-13T11:06:16;100814.97;;;23.35
76583;BMP280;65462;52.148;7.940;2023-07-13T11:18:44;100802.56;;;23.37
76583;BMP280;65462;52.148;7.940;2023-07-13T11:21:16;100822.66;;;23.36
76583;BMP280;65462;52.148;7.940;2023-07-13T11:23:43;100812.63;;;23.33
76583;BMP280;65462;52.148;7.940;2023-07-13T11:29:33;100809.28;;;23.29
76583;BMP280;65462;52.148;7.940;2023-07-13T11:32:02;100799.59;;;23.32
76583;BMP280;65462;52.148;7.940;2023-07-13T11:34:45;100799.78;;;23.44
76583;BMP280;65462;52.148;7.940;2023-07-13T11:37:12;100811.16;;;23.55
76583;BMP280;65462;52.148;7.940;2023-07-13T11:39:42;100806.88;;;23.61
76583;BMP280;65462;52.148;7.940;2023-07-13T11:42:17;100814.50;;;23.66
76583;BMP280;65462;52.148;7.940;2023-07-13T11:44:46;100808.63;;;23.71
76583;BMP280;65462;52.148;7.940;2023-07-13T11:47:17;100807.69;;;23.81
76583;BMP280;65462;52.148;7.940;2023-07-13T11:49:52;100799.22;;;23.83
76583;BMP280;65462;52.148;7.940;2023-07-13T11:52:32;100803.03;;;23.86
76583;BMP280;65462;52.148;7.940;2023-07-13T11:55:00;100805.72;;;23.86
76583;BMP280;65462;52.148;7.940;2023-07-13T11:57:33;100796.06;;;23.84
76583;BMP280;65462;52.148;7.940;2023-07-13T12:00:03;100808.41;;;23.86
76583;BMP280;65462;52.148;7.940;2023-07-13T12:02:42;100810.34;;;23.85
76583;BMP280;65462;52.148;7.940;2023-07-13T12:05:13;100804.50;;;23.90
76583;BMP280;65462;52.148;7.940;2023-07-13T12:07:40;100815.16;;;23.97
76583;BMP280;65462;52.148;7.940;2023-07-13T12:12:36;100799.41;;;24.15
76583;BMP280;65462;52.148;7.940;2023-07-13T12:15:08;100816.75;;;24.18
76583;BMP280;65462;52.148;7.940;2023-07-13T12:17:35;100811.69;;;24.20
76583;BMP280;65462;52.148;7.940;2023-07-13T12:20:03;100804.66;;;24.26
76583;BMP280;65462;52.148;7.940;2023-07-13T12:22:31;100803.41;;;24.30
76583;BMP280;65462;52.148;7.940;2023-07-13T12:24:59;100798.38;;;24.32
76583;BMP280;65462;52.148;7.940;2023-07-13T12:27:27;100799.31;;;24.22
76583;BMP280;65462;52.148;7.940;2023-07-13T12:29:58;100805.88;;;24.21
76583;BMP280;65462;52.148;7.940;2023-07-13T12:32:25;100811.63;;;24.23
76583;BMP280;65462;52.148;7.940;2023-07-13T12:34:55;100809.44;;;24.18
76583;BMP280;65462;52.148;7.940;2023-07-13T12:37:21;100820.41;;;24.08
76583;BMP280;65462;52.148;7.940;2023-07-13T12:39:47;100825.50;;;24.02
76583;BMP280;65462;52.148;7.940;2023-07-13T12:42:23;100836.88;;;23.94
76583;BMP280;65462;52.148;7.940;2023-07-13T12:44:57;100852.34;;;23.90
76583;BMP280;65462;52.148;7.940;2023-07-13T12:47:24;100886.44;;;23.80
76583;BMP280;65462;52.148;7.940;2023-07-13T12:49:59;100890.56;;;23.61
76583;BMP280;65462;52.148;7.940;2023-07-13T12:52:32;100903.16;;;23.41
76583;BMP280;65462;52.148;7.940;2023-07-13T12:55:07;100916.06;;;23.23
76583;BMP280;65462;52.148;7.940;2023-07-13T12:57:41;100906.75;;;22.94
76583;BMP280;65462;52.148;7.940;2023-07-13T13:00:28;100902.81;;;22.65
76583;BMP280;65462;52.148;7.940;2023-07-13T13:02:56;100900.34;;;22.37
76583;BMP280;65462;52.148;7.940;2023-07-13T13:05:25;100889.75;;;22.16
76583;BMP280;65462;52.148;7.940;2023-07-13T13:07:51;100886.00;;;21.96
76583;BMP280;65462;52.148;7.940;2023-07-13T13:10:16;100880.72;;;21.82
76583;BMP280;65462;52.148;7.940;2023-07-13T13:12:41;100877.69;;;21.73
76583;BMP280;65462;52.148;7.940;2023-07-13T13:15:10;100870.81;;;21.65
76583;BMP280;65462;52.148;7.940;2023-07-13T13:17:37;100870.78;;;21.72
76583;BMP280;65462;52.148;7.940;2023-07-13T13:20:13;100874.19;;;21.79
76583;BMP280;65462;52.148;7.940;2023-07-13T13:22:38;100861.88;;;21.82
76583;BMP280;65462;52.148;7.940;2023-07-13T13:25:04;100867.97;;;21.93
76583;BMP280;65462;52.148;7.940;2023-07-13T13:27:30;100866.03;;;21.97
76583;BMP280;65462;52.148;7.940;2023-07-13T13:29:55;100866.69;;;22.08
76583;BMP280;65462;52.148;7.940;2023-07-13T13:32:20;100869.78;;;22.13
76583;BMP280;65462;52.148;7.940;2023-07-13T13:34:46;100869.28;;;22.22
76583;BMP280;65462;52.148;7.940;2023-07-13T13:37:22;100870.41;;;22.28
76583;BMP280;65462;52.148;7.940;2023-07-13T13:39:49;100880.34;;;22.34
76583;BMP280;65462;52.148;7.940;2023-07-13T13:42:14;100876.84;;;22.37
76583;BMP280;65462;52.148;7.940;2023-07-13T13:44:40;100873.78;;;22.39
76583;BMP280;65462;52.148;7.940;2023-07-13T13:47:34;100892.25;;;22.37
76583;BMP280;65462;52.148;7.940;2023-07-13T13:50:01;100961.94;;;22.35
76583;BMP280;65462;52.148;7.940;2023-07-13T13:52:27;100974.66;;;22.34
76583;BMP280;65462;52.148;7.940;2023-07-13T13:54:53;100958.66;;;22.10
76583;BMP280;65462;52.148;7.940;2023-07-13T13:57:24;100919.59;;;21.77
76583;BMP280;65462;52.148;7.940;2023-07-13T13:59:51;100913.53;;;21.48
76583;BMP280;65462;52.148;7.940;2023-07-13T14:02:26;100931.69;;;21.23
76583;BMP280;65462;52.148;7.940;2023-07-13T14:04:58;100938.63;;;21.00
76583;BMP280;65462;52.148;7.940;2023-07-13T14:07:25;100943.25;;;20.82
76583;BMP280;65462;52.148;7.940;2023-07-13T14:09:52;100944.00;;;20.68
76583;BMP280;65462;52.148;7.940;2023-07-13T14:12:17;100943.22;;;20.57
76583;BMP280;65462;52.148;7.940;2023-07-13T14:14:43;100934.78;;;20.48
76583;BMP280;65462;52.148;7.940;2023-07-13T14:17:18;100932.84;;;20.42
76583;BMP280;65462;52.148;7.940;2023-07-13T14:19:47;100940.88;;;20.38
76583;BMP280;65462;52.148;7.940;2023-07-13T14:22:16;100947.78;;;20.32
76583;BMP280;65462;52.148;7.940;2023-07-13T14:24:41;100945.50;;;20.27
76583;BMP280;65462;52.148;7.940;2023-07-13T14:27:09;100947.78;;;20.25
76583;BMP280;65462;52.148;7.940;2023-07-13T14:29:34;100952.75;;;20.23
76583;BMP280;65462;52.148;7.940;2023-07-13T14:32:00;100949.28;;;20.22
76583;BMP280;65462;52.148;7.940;2023-07-13T14:34:25;100955.44;;;20.23